Time;durP1;ratioP1;P1;durP2;ratioP2;P2;SDS_P1;SDS_P2;PMS_P1;PMS_P2;Temp;Humidity;BMP_temperature;BMP_pressure;BME280_temperature;BME280_humidity;BME280_pressure;Samples;Min_cycle;Max_cycle;Signal;HPM_P1;HPM_P2
2022/03/03 00:00:05;;;;;;;54.22;31.73;;;2.50;99.90;;;;;;5026239;28;20045;-75
2022/03/03 00:02:30;;;;;;;54.85;31.38;;;2.40;99.90;;;;;;5016414;28;20042;-75
2022/03/03 00:04:56;;;;;;;54.72;32.13;;;2.50;99.90;;;;;;5032302;28;20040;-75
2022/03/03 00:07:22;;;;;;;52.60;31.65;;;2.50;99.90;;;;;;5017061;28;20041;-76
2022/03/03 00:09:47;;;;;;;51.95;30.38;;;2.60;99.90;;;;;;5013027;28;20410;-75
2022/03/03 00:12:13;;;;;;;56.33;31.15;;;2.50;99.90;;;;;;5019377;28;20125;-75
2022/03/03 00:14:38;;;;;;;59.22;33.00;;;2.50;99.90;;;;;;5032468;28;20045;-75
2022/03/03 00:17:04;;;;;;;53.97;33.03;;;2.40;99.90;;;;;;5020417;28;20049;-75
2022/03/03 00:19:30;;;;;;;52.75;31.05;;;2.50;99.90;;;;;;5012418;28;20045;-75
2022/03/03 00:21:55;;;;;;;54.53;31.40;;;2.50;99.90;;;;;;5013300;28;20091;-75
2022/03/03 00:24:21;;;;;;;53.88;30.95;;;2.50;99.90;;;;;;5013213;28;20041;-75
2022/03/03 00:26:46;;;;;;;52.13;30.77;;;2.50;99.90;;;;;;5012856;28;20038;-75
2022/03/03 00:29:12;;;;;;;55.22;33.00;;;2.40;99.90;;;;;;5013141;28;20471;-75
2022/03/03 00:31:38;;;;;;;52.08;33.13;;;2.40;99.90;;;;;;5012148;28;20050;-75
2022/03/03 00:34:04;;;;;;;52.80;31.70;;;2.30;99.90;;;;;;5018486;28;20060;-75
2022/03/03 00:36:29;;;;;;;57.88;32.63;;;2.30;99.90;;;;;;5033075;28;20120;-75
2022/03/03 00:38:55;;;;;;;50.40;31.00;;;2.20;99.90;;;;;;5024779;28;20042;-75
2022/03/03 00:41:20;;;;;;;53.63;31.45;;;2.30;99.90;;;;;;5012831;28;20044;-75
2022/03/03 00:43:46;;;;;;;56.40;32.00;;;2.30;99.90;;;;;;5014117;28;20033;-75
2022/03/03 00:46:11;;;;;;;56.55;32.60;;;2.20;99.90;;;;;;5013075;28;20556;-75
2022/03/03 00:48:37;;;;;;;56.00;32.05;;;2.30;99.90;;;;;;5013187;28;20073;-75
2022/03/03 00:51:06;;;;;;;52.50;28.83;;;2.20;99.90;;;;;;5013355;28;20037;-75
2022/03/03 00:53:33;;;;;;;49.20;29.70;;;2.30;99.90;;;;;;5028157;28;20560;-75
2022/03/03 00:55:59;;;;;;;49.45;29.50;;;2.30;99.90;;;;;;5014618;28;20069;-75
2022/03/03 00:58:25;;;;;;;53.63;29.80;;;2.40;99.90;;;;;;5016787;28;20572;-75
2022/03/03 01:00:50;;;;;;;49.47;30.25;;;2.30;99.90;;;;;;5017160;28;20050;-75
2022/03/03 01:03:16;;;;;;;50.28;29.15;;;2.30;99.90;;;;;;5016459;28;20030;-75
2022/03/03 01:05:41;;;;;;;51.58;30.88;;;2.40;99.90;;;;;;5031677;28;20041;-75
2022/03/03 01:08:10;;;;;;;55.28;31.48;;;2.30;99.90;;;;;;5019728;28;20403;-75
2022/03/03 01:10:37;;;;;;;53.63;31.17;;;2.30;99.90;;;;;;5016819;28;20428;-75
2022/03/03 01:13:03;;;;;;;49.63;28.67;;;2.20;99.90;;;;;;5016866;28;20045;-75
2022/03/03 01:15:28;;;;;;;51.55;30.38;;;2.10;99.90;;;;;;5016696;28;20124;-76
2022/03/03 01:17:54;;;;;;;50.60;30.25;;;2.10;99.90;;;;;;5016790;28;20083;-75
2022/03/03 01:20:19;;;;;;;47.90;28.30;;;2.10;99.90;;;;;;5016684;28;20046;-75
2022/03/03 01:22:45;;;;;;;48.45;28.77;;;2.10;99.90;;;;;;5016471;28;20521;-74
2022/03/03 01:25:11;;;;;;;49.75;29.95;;;2.00;99.90;;;;;;5016530;28;20044;-74
2022/03/03 01:27:38;;;;;;;53.28;29.95;;;2.00;99.90;;;;;;5016251;28;20034;-75
2022/03/03 01:30:04;;;;;;;48.05;27.52;;;2.10;99.90;;;;;;5015548;28;20053;-75
2022/03/03 01:32:30;;;;;;;45.55;27.13;;;2.20;99.90;;;;;;5016075;28;20085;-75
2022/03/03 01:34:55;;;;;;;50.95;29.20;;;2.10;99.90;;;;;;5020011;28;20057;-76
2022/03/03 01:37:21;;;;;;;48.53;29.27;;;2.10;99.90;;;;;;5028334;28;20537;-75
2022/03/03 01:39:47;;;;;;;49.35;29.33;;;2.10;99.90;;;;;;5015045;28;20038;-75
2022/03/03 01:42:15;;;;;;;50.25;29.13;;;2.00;99.90;;;;;;5015190;28;20040;-75
2022/03/03 01:44:42;;;;;;;53.55;30.17;;;1.90;99.90;;;;;;5016316;28;20046;-74
2022/03/03 01:47:19;;;;;;;52.15;30.23;;;1.80;99.90;;;;;;5016061;28;20029;-74
2022/03/03 01:49:45;;;;;;;49.60;29.48;;;1.70;99.90;;;;;;5036008;28;20041;-75
2022/03/03 01:52:11;;;;;;;52.80;30.17;;;1.60;99.90;;;;;;5030873;28;20041;-75
2022/03/03 01:54:37;;;;;;;49.03;29.98;;;1.60;99.90;;;;;;5016290;28;20117;-74
2022/03/03 01:57:02;;;;;;;51.10;29.58;;;1.60;99.90;;;;;;5015797;28;20597;-75
2022/03/03 01:59:28;;;;;;;51.53;28.58;;;1.50;99.90;;;;;;5015968;28;20045;-75
2022/03/03 02:01:54;;;;;;;52.45;29.33;;;1.50;99.90;;;;;;5015525;28;20042;-74
2022/03/03 02:04:20;;;;;;;51.95;28.85;;;1.50;99.90;;;;;;5030963;28;20053;-74
2022/03/03 02:06:45;;;;;;;50.83;29.92;;;1.50;99.90;;;;;;5035055;28;20041;-74
2022/03/03 02:09:11;;;;;;;44.92;26.20;;;1.60;99.90;;;;;;5016640;28;20551;-74
2022/03/03 02:11:37;;;;;;;46.47;26.88;;;1.60;99.90;;;;;;5015922;28;20049;-74
2022/03/03 02:14:03;;;;;;;46.45;27.33;;;1.60;99.90;;;;;;5013870;28;20046;-74
2022/03/03 02:16:29;;;;;;;50.88;28.73;;;1.60;99.90;;;;;;5033212;28;20564;-74
2022/03/03 02:18:55;;;;;;;45.15;26.85;;;1.60;99.90;;;;;;5035298;28;20041;-74
2022/03/03 02:21:21;;;;;;;46.65;27.50;;;1.50;99.90;;;;;;5025002;28;20496;-74
2022/03/03 02:23:47;;;;;;;48.25;27.85;;;1.60;99.90;;;;;;5023605;28;20033;-74
2022/03/03 02:26:19;;;;;;;46.90;28.25;;;1.50;99.90;;;;;;5027432;28;20117;-74
2022/03/03 02:28:46;;;;;;;50.92;29.30;;;1.40;99.90;;;;;;5015539;28;20036;-74
2022/03/03 02:31:12;;;;;;;49.97;28.98;;;1.40;99.90;;;;;;5014068;28;20113;-74
2022/03/03 02:33:37;;;;;;;46.17;28.33;;;1.30;99.90;;;;;;5015335;28;20125;-74
2022/03/03 02:36:20;;;;;;;43.25;26.77;;;1.30;99.90;;;;;;5026047;28;20062;-74
2022/03/03 02:38:47;;;;;;;44.20;27.15;;;1.30;99.90;;;;;;5013713;28;20042;-74
2022/03/03 02:41:12;;;;;;;46.35;25.60;;;1.30;99.90;;;;;;5015024;28;20040;-74
2022/03/03 02:43:38;;;;;;;46.92;26.75;;;1.20;99.90;;;;;;5015385;28;20117;-74
2022/03/03 02:46:06;;;;;;;50.45;28.25;;;1.20;99.90;;;;;;5015228;28;20049;-74
2022/03/03 02:48:32;;;;;;;47.22;26.95;;;1.20;99.90;;;;;;5028115;28;20402;-74
2022/03/03 02:50:57;;;;;;;46.38;27.65;;;1.20;99.90;;;;;;5031541;28;20075;-74
2022/03/03 02:53:23;;;;;;;47.60;27.92;;;1.00;99.90;;;;;;5028175;28;20075;-74
2022/03/03 02:55:49;;;;;;;49.42;28.73;;;1.00;99.90;;;;;;5014673;28;20487;-74
2022/03/03 02:58:15;;;;;;;49.30;29.30;;;1.00;99.90;;;;;;5014836;28;20042;-74
2022/03/03 03:00:43;;;;;;;47.88;26.45;;;1.00;99.90;;;;;;5014526;28;20045;-74
2022/03/03 03:03:12;;;;;;;47.72;27.85;;;1.10;99.90;;;;;;5014241;28;20038;-74
2022/03/03 03:05:38;;;;;;;49.05;28.98;;;1.10;99.90;;;;;;5020125;28;20049;-74
2022/03/03 03:08:04;;;;;;;45.15;26.48;;;1.10;99.90;;;;;;5034555;28;20044;-74
2022/03/03 03:10:30;;;;;;;45.65;27.05;;;1.10;99.90;;;;;;5027677;28;20045;-74
2022/03/03 03:12:56;;;;;;;48.80;28.77;;;1.00;99.90;;;;;;5034292;28;20398;-74
2022/03/03 03:15:21;;;;;;;45.25;27.27;;;1.00;99.90;;;;;;5019076;28;20069;-74
2022/03/03 03:17:47;;;;;;;49.63;28.30;;;1.00;99.90;;;;;;5012619;28;20597;-74
2022/03/03 03:20:13;;;;;;;48.95;27.80;;;1.00;99.90;;;;;;4980334;28;20050;-74
2022/03/03 03:22:38;;;;;;;46.13;28.02;;;0.80;99.90;;;;;;4997343;28;20128;-74
2022/03/03 03:25:07;;;;;;;48.95;27.85;;;0.80;99.90;;;;;;5014179;28;20555;-74
2022/03/03 03:27:34;;;;;;;49.33;27.42;;;0.80;99.90;;;;;;5014320;28;20068;-74
2022/03/03 03:29:59;;;;;;;47.10;27.67;;;0.80;99.90;;;;;;5012803;28;20056;-74
2022/03/03 03:32:25;;;;;;;45.65;26.48;;;0.80;99.90;;;;;;5014176;28;20494;-74
2022/03/03 03:34:51;;;;;;;43.53;27.85;;;0.80;99.90;;;;;;5013874;28;20029;-74
2022/03/03 03:37:16;;;;;;;47.30;27.70;;;0.80;99.90;;;;;;5012846;28;20068;-74
2022/03/03 03:39:42;;;;;;;52.97;29.42;;;0.80;99.90;;;;;;5013969;28;20059;-74
2022/03/03 03:42:08;;;;;;;48.72;28.30;;;0.80;99.90;;;;;;5014044;28;20038;-74
2022/03/03 03:44:35;;;;;;;48.55;28.27;;;0.70;99.90;;;;;;5013847;28;20513;-73
2022/03/03 03:47:01;;;;;;;50.33;29.08;;;0.70;99.90;;;;;;5014045;28;20045;-74
2022/03/03 03:49:27;;;;;;;48.78;29.45;;;0.70;99.90;;;;;;5013734;28;20049;-74
2022/03/03 03:51:53;;;;;;;51.35;30.23;;;0.70;99.90;;;;;;5014048;28;20041;-74
2022/03/03 03:54:18;;;;;;;54.50;29.73;;;0.70;99.90;;;;;;5013831;28;20034;-74
2022/03/03 03:56:44;;;;;;;51.25;29.60;;;0.70;99.90;;;;;;5032066;28;20556;-74
2022/03/03 03:59:10;;;;;;;51.58;29.83;;;0.70;99.90;;;;;;5032648;28;20133;-74
2022/03/03 04:01:36;;;;;;;50.03;29.75;;;0.70;99.90;;;;;;5028860;28;20502;-74
2022/03/03 04:04:02;;;;;;;50.25;28.70;;;0.80;99.90;;;;;;5013413;28;20512;-74
2022/03/03 04:06:27;;;;;;;51.15;29.40;;;0.80;99.90;;;;;;5013132;28;20040;-74
2022/03/03 04:08:53;;;;;;;46.95;29.70;;;0.80;99.90;;;;;;5013561;28;20034;-74
2022/03/03 04:11:19;;;;;;;48.40;27.83;;;0.80;99.90;;;;;;5013737;28;20068;-74
2022/03/03 04:13:44;;;;;;;51.30;30.00;;;0.80;99.90;;;;;;5022494;28;20060;-74
2022/03/03 04:16:10;;;;;;;46.70;28.05;;;0.80;99.90;;;;;;5033188;28;20497;-74
2022/03/03 04:18:35;;;;;;;46.53;26.17;;;0.80;99.90;;;;;;5025181;28;20061;-74
2022/03/03 04:21:01;;;;;;;47.67;28.52;;;0.90;99.90;;;;;;5013581;28;20034;-74
2022/03/03 04:23:27;;;;;;;52.17;29.08;;;0.90;99.90;;;;;;5017269;28;20049;-74
2022/03/03 04:25:52;;;;;;;49.45;27.98;;;0.90;99.90;;;;;;5017640;28;20038;-74
2022/03/03 04:28:18;;;;;;;47.78;27.33;;;1.00;99.90;;;;;;5013070;28;20479;-74
2022/03/03 04:30:43;;;;;;;45.40;27.13;;;1.00;99.90;;;;;;5013528;28;20042;-74
2022/03/03 04:33:09;;;;;;;49.40;28.80;;;1.00;99.90;;;;;;5013224;28;20080;-74
2022/03/03 04:35:34;;;;;;;49.10;28.63;;;1.00;99.90;;;;;;5019288;28;20049;-74
2022/03/03 04:38:01;;;;;;;48.08;27.88;;;0.90;99.90;;;;;;5030190;28;20048;-74
2022/03/03 04:40:26;;;;;;;48.15;28.10;;;0.90;99.90;;;;;;5013300;28;20129;-74
2022/03/03 04:42:52;;;;;;;41.60;26.35;;;0.90;99.90;;;;;;5013213;28;20065;-74
2022/03/03 04:45:18;;;;;;;42.63;26.58;;;1.00;99.90;;;;;;5013031;28;20054;-74
2022/03/03 04:47:44;;;;;;;48.75;26.77;;;0.90;99.90;;;;;;5024706;28;20080;-74
2022/03/03 04:50:09;;;;;;;45.67;25.40;;;0.90;99.90;;;;;;5032020;28;20080;-74
2022/03/03 04:52:35;;;;;;;47.40;26.92;;;0.90;99.90;;;;;;5020278;28;20545;-74
2022/03/03 04:55:02;;;;;;;42.65;26.02;;;0.90;99.90;;;;;;5013129;28;20495;-74
2022/03/03 04:57:28;;;;;;;44.65;27.02;;;0.90;99.90;;;;;;5012905;28;20046;-74
2022/03/03 04:59:53;;;;;;;46.10;26.05;;;0.80;99.90;;;;;;5012991;28;20570;-74
2022/03/03 05:02:19;;;;;;;42.67;26.63;;;0.80;99.90;;;;;;5017081;28;20486;-74
2022/03/03 05:04:44;;;;;;;42.30;25.48;;;0.70;99.90;;;;;;5013092;28;20040;-74
2022/03/03 05:07:10;;;;;;;45.05;27.33;;;0.80;99.90;;;;;;5011789;28;20057;-74
2022/03/03 05:09:36;;;;;;;45.30;26.02;;;0.80;99.90;;;;;;5012918;28;20046;-74
2022/03/03 05:12:02;;;;;;;45.97;26.25;;;0.80;99.90;;;;;;5014196;28;20425;-74
2022/03/03 05:14:28;;;;;;;41.92;26.17;;;0.70;99.90;;;;;;5012746;28;20108;-74
2022/03/03 05:16:53;;;;;;;43.05;26.52;;;0.80;99.90;;;;;;5019085;28;20045;-74
2022/03/03 05:19:19;;;;;;;41.42;25.80;;;0.80;99.90;;;;;;5013000;28;20491;-75
2022/03/03 05:21:44;;;;;;;44.47;27.33;;;0.70;99.90;;;;;;5012971;28;20042;-74
2022/03/03 05:24:10;;;;;;;42.30;24.65;;;0.70;99.90;;;;;;5011674;28;20042;-74
2022/03/03 05:26:36;;;;;;;42.33;25.10;;;0.70;99.90;;;;;;5012916;28;20045;-74
2022/03/03 05:29:01;;;;;;;42.20;26.00;;;0.70;99.90;;;;;;5020901;28;20076;-75
2022/03/03 05:31:27;;;;;;;43.55;26.35;;;0.60;99.90;;;;;;5032786;28;20041;-74
2022/03/03 05:33:52;;;;;;;43.60;25.83;;;0.60;99.90;;;;;;5017602;28;20128;-74
2022/03/03 05:36:18;;;;;;;44.40;26.48;;;0.60;99.90;;;;;;5012981;28;20030;-75
2022/03/03 05:38:44;;;;;;;44.22;25.95;;;0.60;99.90;;;;;;5015124;28;20076;-75
2022/03/03 05:41:11;;;;;;;42.47;26.52;;;0.70;99.90;;;;;;5028667;28;20042;-74
2022/03/03 05:43:37;;;;;;;45.53;27.58;;;0.60;99.90;;;;;;5017793;28;20453;-74
2022/03/03 05:46:03;;;;;;;41.92;26.90;;;0.60;99.90;;;;;;5018168;28;20140;-75
2022/03/03 05:48:29;;;;;;;44.72;25.65;;;0.50;99.90;;;;;;5022543;28;20125;-74
2022/03/03 05:50:55;;;;;;;39.10;25.00;;;0.50;99.90;;;;;;5017231;28;20046;-74
2022/03/03 05:53:25;;;;;;;44.25;26.20;;;0.40;99.90;;;;;;5030857;28;20053;-74
2022/03/03 05:55:56;;;;;;;43.30;25.25;;;0.40;99.90;;;;;;5015426;28;20398;-74
2022/03/03 05:58:23;;;;;;;43.95;25.90;;;0.50;99.90;;;;;;5027433;28;20045;-74
2022/03/03 06:00:53;;;;;;;41.00;25.45;;;0.50;99.90;;;;;;5035739;28;20517;-75
2022/03/03 06:03:20;;;;;;;37.75;24.15;;;0.60;99.90;;;;;;5034917;28;20041;-74
2022/03/03 06:05:49;;;;;;;43.65;24.25;;;0.60;99.90;;;;;;5025421;28;20671;-74
2022/03/03 06:08:20;;;;;;;41.20;23.95;;;0.70;99.90;;;;;;5002263;28;20061;-74
2022/03/03 06:10:51;;;;;;;40.20;25.13;;;0.70;99.90;;;;;;5004125;28;20054;-74
2022/03/03 06:13:28;;;;;;;40.10;24.63;;;0.70;99.90;;;;;;5010880;28;20095;-74
2022/03/03 06:15:54;;;;;;;43.90;25.85;;;0.70;99.90;;;;;;5020147;28;21536;-75
2022/03/03 06:18:29;;;;;;;41.85;25.75;;;0.60;99.90;;;;;;4999547;28;20050;-74
2022/03/03 06:20:55;;;;;;;38.47;24.52;;;0.70;99.90;;;;;;5000718;28;20521;-75
2022/03/03 06:23:21;;;;;;;42.35;25.58;;;0.80;99.90;;;;;;5005330;28;20034;-75
2022/03/03 06:25:55;;;;;;;41.83;26.20;;;0.80;99.90;;;;;;5005214;28;20041;-74
2022/03/03 06:28:21;;;;;;;42.70;25.45;;;0.70;99.90;;;;;;5012554;28;20457;-74
2022/03/03 06:30:46;;;;;;;41.17;26.17;;;0.70;99.90;;;;;;5003396;28;20077;-74
2022/03/03 06:33:12;;;;;;;42.97;25.95;;;0.60;99.90;;;;;;5002897;28;20615;-75
2022/03/03 06:35:38;;;;;;;40.05;24.55;;;0.50;99.90;;;;;;4999810;28;20678;-75
2022/03/03 06:38:05;;;;;;;41.72;26.00;;;0.50;99.90;;;;;;5002510;28;20099;-75
2022/03/03 06:40:32;;;;;;;45.83;26.67;;;0.50;99.90;;;;;;5004567;28;20054;-75
2022/03/03 06:43:00;;;;;;;39.92;24.25;;;0.50;99.90;;;;;;5018438;28;20120;-75
2022/03/03 06:45:27;;;;;;;43.63;26.92;;;0.50;99.90;;;;;;5019385;28;20049;-74
2022/03/03 06:47:54;;;;;;;45.55;26.23;;;0.50;99.90;;;;;;5022069;28;20056;-75
2022/03/03 06:50:20;;;;;;;42.30;26.20;;;0.60;99.90;;;;;;5026491;28;20151;-75
2022/03/03 06:52:48;;;;;;;42.80;25.58;;;0.50;99.90;;;;;;5018924;28;20179;-74
2022/03/03 06:55:21;;;;;;;42.65;26.33;;;0.50;99.90;;;;;;5032160;28;20068;-75
2022/03/03 06:57:52;;;;;;;44.55;25.67;;;0.50;99.90;;;;;;5013463;28;20049;-75
2022/03/03 07:00:20;;;;;;;42.08;26.52;;;0.70;99.90;;;;;;5013198;28;20038;-75
2022/03/03 07:02:47;;;;;;;42.65;26.23;;;0.60;99.90;;;;;;5030827;28;20038;-74
2022/03/03 07:05:14;;;;;;;40.83;25.90;;;0.70;99.90;;;;;;5014713;28;20030;-74
2022/03/03 07:07:42;;;;;;;42.55;27.05;;;0.70;99.90;;;;;;5015598;28;20049;-75
2022/03/03 07:10:08;;;;;;;41.15;24.90;;;0.70;99.90;;;;;;5020477;28;20048;-74
2022/03/03 07:12:34;;;;;;;44.15;26.52;;;0.70;99.90;;;;;;5022720;28;20046;-75
2022/03/03 07:15:00;;;;;;;41.15;24.88;;;0.70;99.90;;;;;;5019360;28;20388;-75
2022/03/03 07:17:43;;;;;;;40.75;25.25;;;0.80;99.90;;;;;;5021135;28;20037;-75
2022/03/03 07:20:13;;;;;;;41.80;24.15;;;0.80;99.90;;;;;;5032991;28;20553;-75
2022/03/03 07:23:07;;;;;;;40.13;24.40;;;0.90;99.90;;;;;;5018495;28;20048;-75
2022/03/03 07:25:49;;;;;;;41.40;25.55;;;1.00;99.90;;;;;;5002592;28;20056;-75
2022/03/03 07:28:17;;;;;;;42.13;25.10;;;1.10;99.90;;;;;;5002079;28;20048;-75
2022/03/03 07:30:44;;;;;;;41.63;25.52;;;1.10;99.90;;;;;;5015028;28;20045;-75
2022/03/03 07:33:26;;;;;;;40.13;25.33;;;1.10;99.90;;;;;;5032572;28;20132;-75
2022/03/03 07:35:57;;;;;;;39.90;24.88;;;1.20;99.90;;;;;;5023615;28;20057;-75
2022/03/03 07:38:27;;;;;;;44.88;28.90;;;1.20;99.90;;;;;;5033739;28;20077;-75
2022/03/03 07:40:54;;;;;;;38.50;24.85;;;1.20;99.90;;;;;;5032718;28;20490;-75
2022/03/03 07:43:19;;;;;;;45.95;28.23;;;1.40;99.90;;;;;;5022503;28;20047;-75
2022/03/03 07:45:46;;;;;;;43.10;26.17;;;1.50;99.90;;;;;;5008626;28;20053;-75
2022/03/03 07:48:13;;;;;;;41.83;27.10;;;1.50;99.90;;;;;;5026043;28;20037;-76
2022/03/03 07:50:40;;;;;;;42.13;25.98;;;1.50;99.90;;;;;;5032977;28;20087;-75
2022/03/03 07:53:11;;;;;;;42.03;24.08;;;1.60;99.90;;;;;;5019367;28;20073;-75
2022/03/03 07:56:01;;;;;;;39.13;25.10;;;1.70;99.90;;;;;;5013927;28;20041;-75
2022/03/03 07:58:29;;;;;;;41.65;25.38;;;1.80;99.90;;;;;;5017562;28;20501;-75
2022/03/03 08:00:58;;;;;;;40.50;25.08;;;1.90;99.90;;;;;;5012331;28;20065;-75
2022/03/03 08:03:25;;;;;;;39.78;23.92;;;1.90;99.90;;;;;;5011541;28;20042;-75
2022/03/03 08:05:55;;;;;;;41.35;25.83;;;1.90;99.90;;;;;;5030079;28;20041;-75
2022/03/03 08:08:24;;;;;;;40.50;24.10;;;1.90;99.90;;;;;;5022949;28;20168;-75
2022/03/03 08:10:51;;;;;;;41.00;24.67;;;2.00;99.90;;;;;;5030220;28;20096;-75
2022/03/03 08:13:17;;;;;;;42.13;25.85;;;2.10;99.90;;;;;;5020017;28;20042;-75
2022/03/03 08:15:44;;;;;;;38.63;23.98;;;2.20;99.90;;;;;;5029522;28;20041;-75
2022/03/03 08:18:11;;;;;;;41.58;26.30;;;2.30;99.90;;;;;;5021300;28;20100;-75
2022/03/03 08:20:38;;;;;;;41.13;25.65;;;2.40;99.90;;;;;;5002178;28;20046;-75
2022/03/03 08:23:05;;;;;;;38.83;23.70;;;2.40;99.90;;;;;;5017192;28;20042;-75
2022/03/03 08:25:32;;;;;;;36.38;23.65;;;2.40;99.90;;;;;;5007767;28;20561;-74
2022/03/03 08:27:58;;;;;;;42.85;27.05;;;2.50;99.90;;;;;;5002324;28;20129;-75
2022/03/03 08:30:24;;;;;;;41.45;24.10;;;2.50;99.90;;;;;;5004208;28;20056;-75
2022/03/03 08:33:12;;;;;;;39.55;24.95;;;2.70;99.90;;;;;;5008111;28;20065;-75
2022/03/03 08:35:41;;;;;;;38.40;23.48;;;2.80;99.90;;;;;;5002215;28;20537;-75
2022/03/03 08:38:32;;;;;;;42.83;26.58;;;3.00;99.90;;;;;;5001362;28;20064;-75
2022/03/03 08:40:59;;;;;;;41.63;25.15;;;3.10;99.90;;;;;;5006699;28;20390;-74
2022/03/03 08:43:28;;;;;;;34.85;20.73;;;3.20;99.90;;;;;;5004154;28;20511;-78
2022/03/03 08:45:56;;;;;;;39.88;22.25;;;3.30;99.90;;;;;;5001825;28;20050;-75
2022/03/03 08:48:26;;;;;;;36.00;22.05;;;3.50;99.90;;;;;;5002428;28;20075;-74
2022/03/03 08:50:52;;;;;;;34.53;20.20;;;3.60;99.90;;;;;;5023414;28;20041;-74
2022/03/03 08:53:17;;;;;;;33.20;21.75;;;3.70;99.90;;;;;;5026940;28;20069;-75
2022/03/03 08:55:43;;;;;;;37.97;22.67;;;3.90;99.90;;;;;;5025239;28;20069;-75
2022/03/03 08:58:10;;;;;;;36.22;22.60;;;3.90;99.90;;;;;;5031469;28;20037;-75
2022/03/03 09:00:36;;;;;;;34.08;21.95;;;3.90;99.90;;;;;;5032639;28;20057;-75
2022/03/03 09:03:03;;;;;;;29.58;18.58;;;3.90;99.90;;;;;;5017947;28;20137;-75
2022/03/03 09:05:29;;;;;;;36.45;20.88;;;4.10;99.90;;;;;;5016266;28;20041;-75
2022/03/03 09:07:54;;;;;;;34.35;22.27;;;4.30;99.90;;;;;;5000994;28;20052;-75
2022/03/03 09:10:20;;;;;;;34.28;20.55;;;4.40;99.90;;;;;;5021179;28;20116;-75
2022/03/03 09:12:46;;;;;;;36.50;22.52;;;4.50;99.90;;;;;;5015806;28;20033;-75
2022/03/03 09:15:12;;;;;;;32.60;20.88;;;4.60;99.90;;;;;;5012865;28;20038;-75
2022/03/03 09:17:38;;;;;;;31.83;20.13;;;4.70;99.90;;;;;;5025901;28;20038;-75
2022/03/03 09:20:06;;;;;;;30.35;18.63;;;4.90;99.90;;;;;;5029281;28;20446;-75
2022/03/03 09:22:33;;;;;;;35.85;21.05;;;5.10;99.90;;;;;;5002629;28;20049;-75
2022/03/03 09:24:59;;;;;;;34.63;21.20;;;5.20;99.90;;;;;;5013609;28;20444;-75
2022/03/03 09:27:24;;;;;;;34.95;20.90;;;5.30;99.90;;;;;;5020510;28;20040;-75
2022/03/03 09:29:51;;;;;;;33.40;21.25;;;5.40;99.90;;;;;;5029544;28;20038;-75
2022/03/03 09:32:16;;;;;;;30.92;20.30;;;5.40;99.90;;;;;;5016379;28;20037;-75
2022/03/03 09:34:45;;;;;;;30.42;19.63;;;5.60;99.90;;;;;;5016249;28;20473;-75
2022/03/03 09:37:14;;;;;;;35.60;21.85;;;5.70;99.90;;;;;;5013052;28;20037;-75
2022/03/03 09:39:39;;;;;;;34.13;20.48;;;5.60;99.40;;;;;;5034699;28;20095;-75
2022/03/03 09:42:05;;;;;;;30.42;20.58;;;5.60;99.90;;;;;;5034729;28;20442;-75
2022/03/03 09:44:31;;;;;;;30.48;19.42;;;5.70;99.90;;;;;;5022200;28;20034;-75
2022/03/03 09:46:56;;;;;;;32.90;21.63;;;5.80;99.90;;;;;;5015211;28;20049;-76
2022/03/03 09:49:23;;;;;;;30.73;20.08;;;5.90;99.90;;;;;;5024212;28;20048;-75
2022/03/03 09:51:50;;;;;;;29.58;18.83;;;6.20;99.90;;;;;;5035625;28;20072;-75
2022/03/03 09:54:16;;;;;;;28.08;19.90;;;6.40;99.90;;;;;;5030015;28;20127;-75
2022/03/03 09:56:42;;;;;;;28.55;19.65;;;6.50;99.90;;;;;;5015970;28;20053;-75
2022/03/03 09:59:08;;;;;;;27.13;17.25;;;6.70;99.90;;;;;;5018707;28;20033;-76
2022/03/03 10:01:34;;;;;;;27.50;18.05;;;6.80;98.50;;;;;;5034041;28;20536;-75
2022/03/03 10:04:15;;;;;;;27.08;17.13;;;6.90;97.50;;;;;;5033652;28;20065;-75
2022/03/03 10:06:42;;;;;;;26.08;17.50;;;7.00;99.30;;;;;;5034122;28;20406;-75
2022/03/03 10:09:09;;;;;;;28.63;18.20;;;7.00;99.40;;;;;;5015512;28;20037;-76
2022/03/03 10:11:58;;;;;;;27.88;18.10;;;7.10;98.40;;;;;;5015714;28;20117;-75
2022/03/03 10:14:29;;;;;;;26.75;17.48;;;7.10;98.70;;;;;;5016340;28;20053;-75
2022/03/03 10:16:55;;;;;;;25.08;16.50;;;7.20;98.80;;;;;;5034240;28;20037;-75
2022/03/03 10:19:20;;;;;;;24.17;17.33;;;7.30;98.40;;;;;;5031030;28;20175;-75
2022/03/03 10:21:46;;;;;;;28.10;18.02;;;7.40;96.40;;;;;;5015408;28;20045;-75
2022/03/03 10:24:21;;;;;;;21.65;14.30;;;7.50;96.50;;;;;;5024521;28;20041;-75
2022/03/03 10:26:59;;;;;;;22.15;15.02;;;7.60;93.20;;;;;;5015028;28;20121;-76
2022/03/03 10:29:25;;;;;;;21.77;14.27;;;7.80;91.40;;;;;;5029571;28;20461;-76
2022/03/03 10:31:53;;;;;;;22.13;15.00;;;7.90;91.90;;;;;;5024052;28;20041;-76
2022/03/03 10:34:38;;;;;;;21.98;14.07;;;7.90;92.00;;;;;;5021631;28;20081;-75
2022/03/03 10:37:07;;;;;;;22.10;15.48;;;8.00;91.10;;;;;;5035117;28;20046;-75
2022/03/03 10:39:43;;;;;;;21.02;14.57;;;8.00;90.70;;;;;;5015537;28;20060;-75
2022/03/03 10:42:22;;;;;;;20.08;13.48;;;8.10;84.20;;;;;;5007114;28;20054;-75
2022/03/03 10:44:51;;;;;;;20.88;14.15;;;8.30;85.20;;;;;;5016721;28;20061;-75
2022/03/03 10:47:21;;;;;;;20.27;13.60;;;8.40;84.10;;;;;;5020981;28;20394;-75
2022/03/03 10:49:52;;;;;;;22.02;15.20;;;8.50;79.90;;;;;;5021901;28;20052;-76
2022/03/03 10:52:21;;;;;;;24.27;15.43;;;8.40;84.30;;;;;;5035017;28;20045;-76
2022/03/03 10:55:00;;;;;;;20.92;13.30;;;8.50;81.80;;;;;;5027148;28;20045;-76
2022/03/03 10:57:54;;;;;;;21.52;14.77;;;8.50;83.00;;;;;;5013837;28;20030;-75
2022/03/03 11:00:28;;;;;;;21.77;14.38;;;8.50;84.40;;;;;;5016214;28;20053;-76
2022/03/03 11:02:58;;;;;;;21.25;13.75;;;8.70;80.40;;;;;;5020380;28;20040;-76
2022/03/03 11:05:26;;;;;;;21.75;14.68;;;8.80;81.80;;;;;;5034016;28;20030;-78
2022/03/03 11:08:01;;;;;;;21.70;14.82;;;8.80;81.70;;;;;;5013086;28;20045;-77
2022/03/03 11:10:29;;;;;;;22.52;14.90;;;8.80;81.60;;;;;;5020842;28;20052;-77
2022/03/03 11:12:55;;;;;;;21.20;14.65;;;8.80;85.50;;;;;;5031554;28;20398;-79
2022/03/03 11:15:24;;;;;;;22.77;13.93;;;8.60;74.00;;;;;;5028654;28;20050;-75
2022/03/03 11:17:52;;;;;;;21.17;13.90;;;8.80;80.10;;;;;;5012865;28;20401;-74
2022/03/03 11:20:19;;;;;;;23.85;15.48;;;8.80;80.40;;;;;;5025421;28;20413;-74
2022/03/03 11:22:46;;;;;;;23.00;17.13;;;8.70;81.80;;;;;;5032396;28;20040;-75
2022/03/03 11:25:31;;;;;;;22.90;16.80;;;8.70;78.80;;;;;;5026079;28;20057;-75
2022/03/03 11:28:07;;;;;;;23.00;16.42;;;8.60;79.30;;;;;;5014565;28;20038;-75
2022/03/03 11:30:34;;;;;;;24.23;15.43;;;8.60;78.30;;;;;;5006100;28;20103;-74
2022/03/03 11:33:30;;;;;;;22.92;16.10;;;8.60;83.90;;;;;;5030985;28;20053;-74
2022/03/03 11:36:08;;;;;;;23.85;15.18;;;8.70;82.10;;;;;;5031716;28;20049;-77
2022/03/03 11:38:52;;;;;;;22.88;15.13;;;8.70;82.50;;;;;;5032746;28;20037;-74
2022/03/03 11:41:23;;;;;;;20.85;14.68;;;8.90;80.00;;;;;;5018204;28;20044;-74
2022/03/03 11:44:02;;;;;;;20.25;13.68;;;8.90;78.40;;;;;;5019582;28;20056;-74
2022/03/03 11:46:44;;;;;;;23.55;15.52;;;8.80;78.10;;;;;;5027387;28;20057;-75
2022/03/03 11:49:11;;;;;;;24.45;16.83;;;8.80;81.40;;;;;;5012091;28;20144;-74
2022/03/03 11:51:37;;;;;;;25.17;16.63;;;8.80;84.10;;;;;;5025940;28;20041;-74
2022/03/03 11:54:12;;;;;;;23.63;17.25;;;8.80;83.90;;;;;;5026119;28;20042;-73
2022/03/03 11:57:02;;;;;;;24.63;16.65;;;8.90;81.90;;;;;;5015734;28;20050;-73
2022/03/03 11:59:46;;;;;;;22.88;15.25;;;8.90;82.10;;;;;;5013976;28;20052;-73
2022/03/03 12:02:16;;;;;;;23.73;16.10;;;8.90;81.50;;;;;;5021849;28;20046;-73
2022/03/03 12:04:42;;;;;;;21.77;15.32;;;9.00;79.00;;;;;;5012144;28;20502;-73
2022/03/03 12:07:28;;;;;;;25.52;17.00;;;8.90;77.60;;;;;;5013134;28;20483;-73
2022/03/03 12:09:56;;;;;;;24.85;17.00;;;9.00;80.00;;;;;;5028366;28;20490;-73
2022/03/03 12:12:23;;;;;;;22.60;15.95;;;8.80;72.80;;;;;;5029759;28;20046;-73
2022/03/03 12:15:00;;;;;;;22.83;15.10;;;8.80;75.10;;;;;;5013245;28;20060;-73
2022/03/03 12:17:46;;;;;;;23.50;15.65;;;8.90;77.50;;;;;;5025678;28;20498;-73
2022/03/03 12:20:23;;;;;;;21.70;15.30;;;8.90;74.20;;;;;;5031877;28;20046;-73
2022/03/03 12:23:07;;;;;;;22.23;15.75;;;8.90;78.70;;;;;;5027710;28;20052;-73
2022/03/03 12:25:51;;;;;;;20.88;13.82;;;9.00;80.60;;;;;;5031054;28;20092;-73
2022/03/03 12:28:19;;;;;;;20.73;14.00;;;9.00;76.30;;;;;;5029033;28;20037;-73
2022/03/03 12:30:47;;;;;;;18.75;13.27;;;9.00;75.60;;;;;;5031677;28;20077;-73
2022/03/03 12:33:30;;;;;;;22.52;15.13;;;9.20;76.20;;;;;;5039327;28;20033;-73
2022/03/03 12:36:02;;;;;;;21.48;15.75;;;9.20;76.10;;;;;;5012586;28;20491;-73
2022/03/03 12:38:28;;;;;;;20.23;13.80;;;9.30;75.30;;;;;;5014128;28;20038;-73
2022/03/03 12:40:54;;;;;;;23.23;15.82;;;9.20;76.50;;;;;;5032250;28;20070;-73